createdAt,value
2023-03-01T00:00:06.490Z,0.20
2023-03-01T00:02:36.503Z,0.20
2023-03-01T00:05:06.860Z,0.30
2023-03-01T00:07:36.774Z,0.13
2023-03-01T00:10:06.903Z,0.20
2023-03-01T00:12:38.126Z,0.20
2023-03-01T00:15:08.501Z,0.25
2023-03-01T00:17:38.514Z,0.37
2023-03-01T00:20:10.580Z,0.20
2023-03-01T00:22:40.636Z,0.17
2023-03-01T00:25:10.978Z,0.20
2023-03-01T00:27:40.793Z,0.25
2023-03-01T00:30:11.523Z,0.10
2023-03-01T00:32:41.433Z,0.20
2023-03-01T00:35:11.521Z,0.20
2023-03-01T00:37:42.370Z,0.30
2023-03-01T00:40:15.431Z,0.20
2023-03-01T00:42:46.043Z,0.20
2023-03-01T00:45:16.063Z,0.13
2023-03-01T00:47:46.163Z,0.20
2023-03-01T00:50:17.152Z,0.20
2023-03-01T00:52:47.135Z,0.10
2023-03-01T00:55:17.296Z,0.10
2023-03-01T00:57:48.216Z,0.20
2023-03-01T01:00:19.287Z,0.22
2023-03-01T01:02:49.222Z,0.20
2023-03-01T01:05:20.569Z,0.30
2023-03-01T01:07:50.820Z,0.13
2023-03-01T01:10:21.073Z,0.20
2023-03-01T01:12:51.039Z,0.30
2023-03-01T01:15:22.045Z,0.40
2023-03-01T01:17:51.978Z,0.20
2023-03-01T01:20:21.960Z,0.10
2023-03-01T01:22:52.979Z,0.20
2023-03-01T01:25:23.138Z,0.20
2023-03-01T01:27:52.969Z,0.17
2023-03-01T01:30:22.928Z,0.20
2023-03-01T01:32:55.280Z,0.10
2023-03-01T01:35:25.285Z,0.10
2023-03-01T01:37:55.170Z,0.20
2023-03-01T01:40:26.096Z,0.28
2023-03-01T01:42:55.925Z,0.10
2023-03-01T01:45:35.295Z,0.20
2023-03-01T01:48:07.482Z,0.23
2023-03-01T01:50:38.822Z,0.20
2023-03-01T01:53:10.452Z,0.20
2023-03-01T01:55:40.668Z,0.20
2023-03-01T01:58:11.053Z,0.17
2023-03-01T02:00:40.993Z,0.20
2023-03-01T02:03:18.109Z,0.13
2023-03-01T02:05:58.041Z,0.20
2023-03-01T02:08:30.220Z,0.30
2023-03-01T02:11:01.462Z,0.20
2023-03-01T02:13:31.309Z,0.20
2023-03-01T02:16:02.337Z,0.30
2023-03-01T02:18:32.356Z,0.15
2023-03-01T02:21:35.394Z,0.20
2023-03-01T02:24:08.039Z,0.20
2023-03-01T02:26:58.029Z,0.47
2023-03-01T02:29:28.019Z,0.20
2023-03-01T02:31:58.528Z,0.20
2023-03-01T02:34:28.572Z,0.13
2023-03-01T02:37:06.797Z,0.20
2023-03-01T02:39:47.562Z,0.20
2023-03-01T02:42:27.425Z,0.20
2023-03-01T02:44:57.550Z,0.20
2023-03-01T02:47:27.419Z,0.20
2023-03-01T02:49:59.729Z,0.40
2023-03-01T02:52:42.105Z,0.20
2023-03-01T02:55:13.613Z,0.20
2023-03-01T02:57:45.155Z,0.20
2023-03-01T03:00:21.298Z,0.17
2023-03-01T03:02:54.282Z,0.17
2023-03-01T03:05:25.704Z,0.30
2023-03-01T03:07:55.617Z,0.17
2023-03-01T03:10:26.973Z,0.20
2023-03-01T03:13:05.302Z,0.30
2023-03-01T03:15:36.516Z,0.20
2023-03-01T03:18:07.145Z,0.20
2023-03-01T03:20:37.291Z,0.13
2023-03-01T03:23:07.359Z,0.30
2023-03-01T03:25:38.723Z,0.20
2023-03-01T03:28:10.446Z,0.40
2023-03-01T03:30:41.883Z,0.20
2023-03-01T03:33:13.597Z,0.20
2023-03-01T03:35:49.664Z,0.30
2023-03-01T03:38:21.359Z,0.40
2023-03-01T03:40:56.749Z,0.62
2023-03-01T03:43:26.693Z,0.20
2023-03-01T03:46:00.474Z,0.30
2023-03-01T03:48:30.544Z,0.20
2023-03-01T03:51:00.443Z,0.20
2023-03-01T03:53:32.984Z,0.20
2023-03-01T03:56:02.828Z,0.30
2023-03-01T03:58:32.872Z,0.30
2023-03-01T04:01:02.772Z,0.40
2023-03-01T04:03:33.494Z,0.20
2023-03-01T04:06:03.549Z,0.30
2023-03-01T04:08:33.606Z,0.35
2023-03-01T04:11:05.611Z,0.30
2023-03-01T04:13:35.810Z,0.30
2023-03-01T04:16:05.784Z,0.30
2023-03-01T04:18:35.709Z,0.30
2023-03-01T04:21:06.031Z,0.33
2023-03-01T04:23:36.439Z,0.40
2023-03-01T04:26:06.963Z,0.40
2023-03-01T04:28:41.987Z,0.40
2023-03-01T04:31:17.240Z,0.40
2023-03-01T04:33:54.662Z,0.68
2023-03-01T04:36:29.768Z,0.50
2023-03-01T04:39:00.037Z,0.30
2023-03-01T04:41:30.020Z,0.40
2023-03-01T04:44:01.352Z,0.63
2023-03-01T04:46:31.562Z,0.60
2023-03-01T04:49:01.595Z,0.50
2023-03-01T04:51:33.816Z,0.30
2023-03-01T04:54:03.753Z,0.50
2023-03-01T04:56:33.787Z,0.85
2023-03-01T04:59:05.108Z,0.40
2023-03-01T05:01:35.029Z,0.57
2023-03-01T05:04:06.303Z,0.50
2023-03-01T05:06:37.675Z,0.50
2023-03-01T05:09:07.659Z,0.50
2023-03-01T05:11:37.573Z,0.50
2023-03-01T05:14:10.562Z,0.30
2023-03-01T05:16:42.774Z,0.42
2023-03-01T05:19:16.988Z,0.50
2023-03-01T05:22:05.393Z,0.50
2023-03-01T05:24:36.394Z,0.50
2023-03-01T05:27:06.421Z,0.50
2023-03-01T05:29:36.682Z,0.40
2023-03-01T05:32:06.997Z,0.40
2023-03-01T05:34:37.720Z,0.42
2023-03-01T05:37:08.999Z,0.93
2023-03-01T05:39:39.126Z,0.80
2023-03-01T05:42:10.379Z,0.50
2023-03-01T05:44:42.647Z,0.60
2023-03-01T05:47:12.546Z,0.50
2023-03-01T05:49:42.534Z,0.60
2023-03-01T05:52:12.379Z,0.50
2023-03-01T05:54:42.321Z,0.50
2023-03-01T05:57:12.170Z,0.50
2023-03-01T05:59:42.014Z,0.50
2023-03-01T06:02:12.166Z,0.50
2023-03-01T06:04:42.149Z,0.60
2023-03-01T06:07:13.545Z,0.50
2023-03-01T06:09:43.500Z,0.50
2023-03-01T06:12:14.002Z,0.53
2023-03-01T06:14:44.861Z,0.42
2023-03-01T06:17:17.284Z,0.40
2023-03-01T06:19:48.834Z,0.50
2023-03-01T06:22:19.167Z,0.60
2023-03-01T06:24:49.134Z,0.55
2023-03-01T06:27:19.143Z,0.50
2023-03-01T06:29:49.162Z,0.60
2023-03-01T06:32:19.240Z,0.50
2023-03-01T06:34:49.202Z,0.44
2023-03-01T06:37:19.165Z,0.40
2023-03-01T06:39:49.231Z,0.55
2023-03-01T06:42:19.183Z,0.60
2023-03-01T06:44:49.334Z,0.68
2023-03-01T06:47:19.880Z,0.62
2023-03-01T06:49:49.840Z,0.40
2023-03-01T06:52:19.684Z,0.40
2023-03-01T06:54:49.611Z,0.46
2023-03-01T06:57:20.234Z,0.60
2023-03-01T06:59:50.454Z,0.50
2023-03-01T07:02:20.348Z,0.65
2023-03-01T07:04:51.534Z,0.40
2023-03-01T07:07:21.652Z,0.60
2023-03-01T07:09:52.154Z,0.40
2023-03-01T07:12:22.021Z,0.40
2023-03-01T07:14:51.899Z,0.60
2023-03-01T07:17:21.828Z,0.70
2023-03-01T07:19:51.766Z,0.62
2023-03-01T07:22:21.631Z,0.50
2023-03-01T07:24:51.563Z,0.60
2023-03-01T07:27:21.424Z,0.68
2023-03-01T07:29:51.395Z,0.50
2023-03-01T07:32:21.438Z,0.50
2023-03-01T07:34:51.406Z,0.50
2023-03-01T07:37:21.376Z,0.50
2023-03-01T07:39:51.231Z,0.50
2023-03-01T07:42:21.089Z,0.40
2023-03-01T07:44:51.003Z,0.53
2023-03-01T07:47:20.868Z,0.50
2023-03-01T07:49:50.632Z,0.50
2023-03-01T07:52:20.555Z,0.40
2023-03-01T07:54:50.397Z,0.47
2023-03-01T07:57:20.451Z,0.40
2023-03-01T07:59:50.334Z,0.60
2023-03-01T08:02:21.413Z,0.50
2023-03-01T08:04:51.242Z,0.47
2023-03-01T08:07:21.141Z,0.50
2023-03-01T08:09:50.986Z,0.50
2023-03-01T08:12:20.952Z,0.40
2023-03-01T08:14:50.812Z,0.30
2023-03-01T08:17:21.218Z,0.50
2023-03-01T08:19:51.056Z,0.70
2023-03-01T08:22:20.907Z,0.43
2023-03-01T08:24:50.868Z,0.53
2023-03-01T08:27:20.893Z,0.53
2023-03-01T08:29:50.727Z,0.70
2023-03-01T08:32:20.765Z,0.50
2023-03-01T08:34:50.908Z,0.45
2023-03-01T08:37:20.773Z,0.37
2023-03-01T08:39:50.729Z,0.40
2023-03-01T08:42:20.668Z,0.60
2023-03-01T08:44:50.553Z,0.55
2023-03-01T08:47:20.576Z,0.60
2023-03-01T08:49:51.714Z,0.40
2023-03-01T08:52:22.255Z,0.40
2023-03-01T08:54:53.598Z,0.40
2023-03-01T08:57:23.523Z,0.40
2023-03-01T08:59:53.461Z,0.60
2023-03-01T09:02:23.784Z,0.50
2023-03-01T09:04:53.772Z,0.50
2023-03-01T09:07:23.607Z,0.50
2023-03-01T09:09:55.088Z,0.40
2023-03-01T09:12:26.543Z,0.40
2023-03-01T09:14:58.718Z,0.30
2023-03-01T09:17:28.638Z,0.40
2023-03-01T09:19:58.617Z,0.40
2023-03-01T09:22:28.468Z,0.50
2023-03-01T09:24:59.973Z,0.42
2023-03-01T09:27:29.977Z,0.60
2023-03-01T09:29:59.822Z,0.42
2023-03-01T09:32:29.835Z,0.50
2023-03-01T09:35:08.908Z,0.50
2023-03-01T09:37:40.491Z,0.30
2023-03-01T09:40:14.615Z,0.40
2023-03-01T09:42:50.634Z,0.40
2023-03-01T09:45:25.931Z,0.43
2023-03-01T09:47:55.829Z,0.53
2023-03-01T09:50:25.710Z,0.50
2023-03-01T09:53:01.276Z,0.40
2023-03-01T09:55:45.978Z,0.50
2023-03-01T09:58:46.301Z,0.37
2023-03-01T10:01:33.221Z,0.50
2023-03-01T10:04:16.929Z,0.33
2023-03-01T10:06:49.965Z,0.50
2023-03-01T10:09:19.927Z,0.48
2023-03-01T10:11:52.157Z,0.58
2023-03-01T10:14:36.913Z,0.37
2023-03-01T10:17:08.815Z,0.57
2023-03-01T10:19:48.622Z,0.30
2023-03-01T10:22:23.774Z,0.50
2023-03-01T10:24:53.820Z,0.40
2023-03-01T10:27:28.057Z,0.40
2023-03-01T10:30:33.720Z,0.42
2023-03-01T10:35:35.969Z,0.37
2023-03-01T10:38:10.441Z,0.60
2023-03-01T10:40:41.786Z,0.40
2023-03-01T10:43:13.418Z,0.30
2023-03-01T10:45:44.053Z,0.42
2023-03-01T10:48:30.010Z,0.50
2023-03-01T10:51:05.559Z,0.50
2023-03-01T10:53:41.371Z,0.40
2023-03-01T10:56:13.815Z,0.40
2023-03-01T10:58:45.674Z,0.50
2023-03-01T11:01:22.317Z,0.50
2023-03-01T11:04:09.977Z,0.50
2023-03-01T11:06:44.328Z,0.50
2023-03-01T11:09:21.902Z,0.42
2023-03-01T11:11:57.704Z,0.40
2023-03-01T11:14:32.782Z,0.40
2023-03-01T11:17:07.851Z,0.42
2023-03-01T11:19:37.792Z,0.50
2023-03-01T11:22:18.911Z,0.50
2023-03-01T11:25:08.941Z,0.50
2023-03-01T11:27:40.256Z,0.50
2023-03-01T11:30:24.929Z,0.40
2023-03-01T11:33:12.576Z,0.50
2023-03-01T11:35:45.231Z,0.50
2023-03-01T11:38:21.344Z,0.50
2023-03-01T11:41:00.883Z,0.45
2023-03-01T11:43:48.353Z,0.40
2023-03-01T11:46:36.311Z,0.50
2023-03-01T11:49:38.932Z,0.50
2023-03-01T11:52:27.747Z,0.50
2023-03-01T11:55:31.978Z,0.57
2023-03-01T11:58:25.310Z,0.50
2023-03-01T12:01:03.511Z,0.40
2023-03-01T12:03:36.291Z,0.42
2023-03-01T12:06:29.896Z,0.40
2023-03-01T12:09:23.349Z,0.50
2023-03-01T12:12:23.329Z,0.30
2023-03-01T12:15:40.832Z,0.45
2023-03-01T12:18:13.694Z,0.40
2023-03-01T12:20:52.178Z,0.40
2023-03-01T12:23:34.080Z,0.30
2023-03-01T12:26:27.823Z,0.33
2023-03-01T12:29:16.898Z,0.30
2023-03-01T12:32:02.866Z,0.40
2023-03-01T12:34:43.234Z,0.42
2023-03-01T12:37:22.084Z,0.30
2023-03-01T12:39:57.634Z,0.30
2023-03-01T12:42:52.773Z,0.40
2023-03-01T12:45:28.370Z,0.28
2023-03-01T12:48:20.705Z,0.30
2023-03-01T12:50:55.211Z,0.25
2023-03-01T12:53:32.720Z,0.30
2023-03-01T12:56:11.777Z,0.23
2023-03-01T12:58:50.179Z,0.30
2023-03-01T13:01:40.292Z,0.45
2023-03-01T13:04:21.973Z,0.35
2023-03-01T13:07:00.721Z,0.30
2023-03-01T13:09:48.300Z,0.37
2023-03-01T13:12:46.668Z,0.30
2023-03-01T13:15:28.773Z,0.20
2023-03-01T13:18:09.623Z,0.20
2023-03-01T13:20:48.449Z,0.20
2023-03-01T13:23:24.357Z,0.40
2023-03-01T13:26:19.891Z,0.30
2023-03-01T13:28:54.972Z,0.20
2023-03-01T13:31:30.492Z,0.20
2023-03-01T13:34:08.869Z,0.20
2023-03-01T13:36:41.710Z,0.28
2023-03-01T13:39:39.623Z,0.30
2023-03-01T13:42:34.641Z,0.20
2023-03-01T13:45:04.604Z,0.25
2023-03-01T13:47:34.544Z,0.30
2023-03-01T13:50:06.029Z,0.25
2023-03-01T13:52:50.118Z,0.23
2023-03-01T13:55:26.340Z,0.20
2023-03-01T13:58:00.667Z,0.30
2023-03-01T14:03:06.535Z,0.20
2023-03-01T14:05:37.721Z,0.50
2023-03-01T14:08:23.124Z,0.30
2023-03-01T14:17:40.984Z,0.30
2023-03-01T14:20:28.205Z,0.30
2023-03-01T14:23:00.423Z,0.30
2023-03-01T14:25:32.228Z,0.30
2023-03-01T14:28:16.638Z,0.37
2023-03-01T14:30:48.821Z,0.40
2023-03-01T14:33:28.908Z,0.30
2023-03-01T14:36:03.985Z,0.20
2023-03-01T14:38:37.319Z,0.47
2023-03-01T14:41:10.312Z,0.30
2023-03-01T14:43:41.858Z,0.30
2023-03-01T14:46:30.026Z,0.30
2023-03-01T14:49:13.197Z,0.35
2023-03-01T14:51:44.392Z,0.30
2023-03-01T14:54:22.305Z,0.20
2023-03-01T14:56:52.752Z,0.20
2023-03-01T14:59:27.017Z,0.30
2023-03-01T15:01:58.252Z,0.30
2023-03-01T15:04:33.464Z,0.30
2023-03-01T15:07:05.216Z,0.23
2023-03-01T15:09:38.118Z,0.30
2023-03-01T15:12:33.707Z,0.20
2023-03-01T15:15:05.297Z,0.20
2023-03-01T15:17:39.043Z,0.23
2023-03-01T15:20:12.299Z,0.20
2023-03-01T15:22:46.514Z,0.25
2023-03-01T15:25:21.936Z,0.40
2023-03-01T15:27:57.260Z,0.30
2023-03-01T15:30:29.544Z,0.20
2023-03-01T15:33:21.495Z,0.20
2023-03-01T15:35:55.343Z,0.30
2023-03-01T15:41:32.204Z,0.23
2023-03-01T15:44:08.508Z,0.30
2023-03-01T15:46:39.419Z,0.40
2023-03-01T15:49:27.928Z,0.40
2023-03-01T15:51:57.813Z,0.20
2023-03-01T15:54:28.647Z,0.20
2023-03-01T15:57:00.921Z,0.30
2023-03-01T15:59:35.170Z,0.50
2023-03-01T16:02:07.706Z,0.40
2023-03-01T16:04:37.645Z,0.30
2023-03-01T16:07:08.264Z,0.30
2023-03-01T16:09:44.718Z,0.30
2023-03-01T16:12:17.909Z,0.35
2023-03-01T16:14:48.008Z,0.20
2023-03-01T16:17:17.988Z,0.30
2023-03-01T16:19:48.060Z,0.30
2023-03-01T16:22:22.920Z,0.35
2023-03-01T16:24:53.725Z,0.20
2023-03-01T16:27:24.763Z,0.20
2023-03-01T16:29:54.743Z,0.30
2023-03-01T16:32:25.667Z,0.30
2023-03-01T16:34:55.763Z,0.20
2023-03-01T16:37:25.717Z,0.28
2023-03-01T16:39:55.624Z,0.20
2023-03-01T16:42:25.752Z,0.30
2023-03-01T16:45:22.919Z,0.40
2023-03-01T16:47:41.443Z,0.33
2023-03-01T16:50:12.278Z,0.37
2023-03-01T16:52:42.222Z,0.30
2023-03-01T16:55:17.939Z,0.37
2023-03-01T16:57:48.382Z,0.37
2023-03-01T17:00:20.024Z,0.33
2023-03-01T17:02:50.706Z,0.30
2023-03-01T17:05:25.417Z,0.30
2023-03-01T17:07:56.855Z,0.23
2023-03-01T17:10:29.393Z,0.30
2023-03-01T17:12:59.454Z,0.30
2023-03-01T17:15:34.450Z,0.30
2023-03-01T17:18:09.969Z,0.30
2023-03-01T17:20:43.870Z,0.30
2023-03-01T17:23:13.819Z,0.37
2023-03-01T17:25:49.816Z,0.20
2023-03-01T17:28:22.153Z,0.30
2023-03-01T17:30:52.164Z,0.20
2023-03-01T17:33:24.620Z,0.30
2023-03-01T17:35:56.312Z,0.30
2023-03-01T17:38:27.430Z,0.28
2023-03-01T17:40:57.507Z,0.40
2023-03-01T17:43:27.427Z,0.30
2023-03-01T17:45:57.642Z,0.30
2023-03-01T17:48:28.307Z,0.30
2023-03-01T17:50:58.417Z,0.23
2023-03-01T17:53:28.554Z,0.37
2023-03-01T17:56:03.239Z,0.30
2023-03-01T17:58:36.096Z,0.37
2023-03-01T18:03:53.619Z,0.20
2023-03-01T18:06:24.943Z,0.25
2023-03-01T18:08:55.884Z,0.30
2023-03-01T18:11:27.077Z,0.20
2023-03-01T18:13:57.771Z,0.33
2023-03-01T18:16:29.314Z,0.20
2023-03-01T18:19:00.704Z,0.30
2023-03-01T18:21:34.418Z,0.40
2023-03-01T18:24:04.463Z,0.30
2023-03-01T18:26:34.622Z,0.30
2023-03-01T18:29:06.087Z,0.20
2023-03-01T18:31:38.875Z,0.20
2023-03-01T18:34:08.823Z,0.30
2023-03-01T18:36:47.935Z,0.20
2023-03-01T18:39:14.318Z,0.20
2023-03-01T18:41:44.388Z,0.30
2023-03-01T18:44:14.444Z,0.30
2023-03-01T18:46:54.823Z,0.37
2023-03-01T18:49:24.820Z,0.30
2023-03-01T18:51:56.243Z,0.20
2023-03-01T18:54:26.629Z,0.30
2023-03-01T18:56:56.564Z,0.20
2023-03-01T18:59:28.125Z,0.25
2023-03-01T19:01:59.942Z,0.20
2023-03-01T19:04:29.996Z,0.30
2023-03-01T19:07:01.624Z,0.23
2023-03-01T19:09:31.458Z,0.20
2023-03-01T19:12:02.833Z,0.20
2023-03-01T19:14:40.878Z,0.20
2023-03-01T19:17:14.032Z,0.35
2023-03-01T19:19:46.934Z,0.30
2023-03-01T19:22:21.326Z,0.20
2023-03-01T19:25:00.139Z,0.20
2023-03-01T19:27:30.385Z,0.30
2023-03-01T19:30:00.316Z,0.30
2023-03-01T19:32:34.963Z,0.20
2023-03-01T19:35:05.625Z,0.20
2023-03-01T19:37:36.878Z,0.30
2023-03-01T19:40:38.603Z,0.20
2023-03-01T19:43:08.514Z,0.20
2023-03-01T19:45:39.950Z,0.20
2023-03-01T19:48:11.666Z,0.30
2023-03-01T19:50:41.674Z,0.30
2023-03-01T19:53:12.734Z,0.33
2023-03-01T19:55:43.016Z,0.30
2023-03-01T19:58:14.341Z,0.30
2023-03-01T20:00:47.958Z,0.30
2023-03-01T20:03:18.866Z,0.40
2023-03-01T20:05:51.154Z,0.30
2023-03-01T20:08:22.021Z,0.17
2023-03-01T20:10:53.436Z,0.38
2023-03-01T20:13:23.910Z,0.30
2023-03-01T20:15:54.136Z,0.20
2023-03-01T20:18:24.476Z,0.30
2023-03-01T20:20:55.097Z,0.40
2023-03-01T20:23:25.023Z,0.70
2023-03-01T20:25:58.151Z,1.20
2023-03-01T20:28:38.516Z,1.80
2023-03-01T20:31:15.283Z,2.77
2023-03-01T20:33:45.210Z,3.65
2023-03-01T20:36:15.269Z,3.22
2023-03-01T20:38:45.239Z,4.05
2023-03-01T20:41:15.333Z,4.60
2023-03-01T20:43:45.176Z,4.92
2023-03-01T20:46:16.322Z,7.20
2023-03-01T20:48:46.312Z,7.83
2023-03-01T20:51:16.169Z,9.58
2023-03-01T20:53:46.130Z,9.58
2023-03-01T20:56:17.081Z,10.50
2023-03-01T20:58:47.664Z,10.28
2023-03-01T21:01:19.994Z,11.66
2023-03-01T21:03:50.462Z,10.75
2023-03-01T21:06:21.039Z,11.85
2023-03-01T21:08:52.775Z,13.46
2023-03-01T21:11:24.213Z,12.93
2023-03-01T21:13:55.694Z,13.56
2023-03-01T21:16:25.673Z,14.15
2023-03-01T21:18:58.466Z,12.85
2023-03-01T21:21:28.586Z,13.48
2023-03-01T21:24:01.706Z,13.10
2023-03-01T21:26:32.022Z,13.45
2023-03-01T21:29:02.611Z,12.82
2023-03-01T21:31:34.888Z,13.33
2023-03-01T21:34:11.932Z,14.28
2023-03-01T21:36:45.142Z,13.55
2023-03-01T21:39:18.658Z,14.40
2023-03-01T21:41:56.015Z,13.58
2023-03-01T21:44:26.743Z,14.03
2023-03-01T21:46:56.833Z,13.98
2023-03-01T21:49:27.668Z,13.55
2023-03-01T21:52:00.534Z,14.40
2023-03-01T21:54:30.614Z,14.28
2023-03-01T21:57:04.367Z,13.45
2023-03-01T21:59:35.392Z,14.45
2023-03-01T22:02:09.220Z,13.45
2023-03-01T22:07:10.482Z,14.03
2023-03-01T22:09:40.531Z,13.70
2023-03-01T22:12:14.745Z,13.65
2023-03-01T22:17:14.872Z,14.98
2023-03-01T22:19:44.838Z,14.15
2023-03-01T22:22:14.757Z,13.50
2023-03-01T22:24:45.031Z,13.48
2023-03-01T22:27:22.286Z,12.55
2023-03-01T22:29:53.426Z,13.86
2023-03-01T22:32:24.734Z,12.47
2023-03-01T22:34:56.104Z,11.83
2023-03-01T22:37:26.161Z,12.33
2023-03-01T22:39:57.986Z,12.85
2023-03-01T22:42:28.039Z,13.40
2023-03-01T22:44:58.122Z,12.73
2023-03-01T22:47:28.361Z,12.68
2023-03-01T22:49:58.530Z,12.37
2023-03-01T22:52:28.653Z,12.53
2023-03-01T22:54:58.853Z,12.37
2023-03-01T22:57:28.864Z,12.60
2023-03-01T23:00:01.034Z,11.63
2023-03-01T23:02:31.749Z,10.63
2023-03-01T23:05:11.482Z,12.40
2023-03-01T23:07:41.779Z,11.53
2023-03-01T23:10:16.874Z,11.47
2023-03-01T23:12:46.734Z,10.63
2023-03-01T23:15:16.967Z,11.85
2023-03-01T23:17:47.000Z,10.50
2023-03-01T23:20:32.225Z,10.78
2023-03-01T23:23:02.354Z,10.30
2023-03-01T23:25:32.738Z,11.33
2023-03-01T23:28:04.069Z,11.00
2023-03-01T23:30:34.105Z,11.00
2023-03-01T23:33:09.965Z,11.03
2023-03-01T23:35:46.626Z,10.43
2023-03-01T23:38:19.334Z,9.58
2023-03-01T23:40:50.670Z,10.28
2023-03-01T23:43:21.042Z,10.38
2023-03-01T23:45:51.478Z,9.53
2023-03-01T23:48:24.607Z,9.83
2023-03-01T23:50:54.971Z,9.63
2023-03-01T23:53:25.328Z,9.10
2023-03-01T23:55:56.351Z,10.00
2023-03-01T23:58:30.889Z,9.73
